createdAt,value
2023-08-19T00:00:05.688Z,1003.52
2023-08-19T00:00:22.626Z,1003.52
2023-08-19T00:00:39.883Z,1003.32
2023-08-19T00:01:09.847Z,1003.32
2023-08-19T00:01:33.042Z,1003.32
2023-08-19T00:01:57.925Z,1003.32
2023-08-19T00:02:30.955Z,1003.32
2023-08-19T00:03:02.038Z,1003.32
2023-08-19T00:03:34.060Z,1003.42
2023-08-19T00:04:06.070Z,1003.42
2023-08-19T00:04:33.017Z,1003.42
2023-08-19T00:04:53.953Z,1003.42
2023-08-19T00:05:25.864Z,1003.42
2023-08-19T00:05:58.785Z,1003.22
2023-08-19T00:06:29.845Z,1003.22
2023-08-19T00:07:02.781Z,1003.32
2023-08-19T00:07:33.244Z,1003.22
2023-08-19T00:07:49.918Z,1003.22
2023-08-19T00:08:21.872Z,1003.22
2023-08-19T00:08:39.303Z,1003.32
2023-08-19T00:09:11.006Z,1003.32
2023-08-19T00:09:33.114Z,1003.32
2023-08-19T00:09:57.886Z,1003.32
2023-08-19T00:10:29.913Z,1003.32
2023-08-19T00:11:01.882Z,1003.22
2023-08-19T00:11:34.897Z,1003.32
2023-08-19T00:12:05.853Z,1003.32
2023-08-19T00:12:33.035Z,1003.32
2023-08-19T00:12:53.897Z,1003.32
2023-08-19T00:13:25.895Z,1003.32
2023-08-19T00:13:58.754Z,1002.91
2023-08-19T00:14:29.891Z,1002.91
2023-08-19T00:15:02.766Z,1003.32
2023-08-19T00:15:33.017Z,1003.32
2023-08-19T00:15:49.915Z,1003.32
2023-08-19T00:16:21.859Z,1003.32
2023-08-19T00:16:39.129Z,1003.22
2023-08-19T00:17:10.642Z,1003.22
2023-08-19T00:17:33.464Z,1003.22
2023-08-19T00:17:57.877Z,1003.22
2023-08-19T00:18:29.846Z,1003.22
2023-08-19T00:19:01.905Z,1003.11
2023-08-19T00:19:32.990Z,1003.11
2023-08-19T00:19:50.021Z,1003.11
2023-08-19T00:20:23.651Z,1003.11
2023-08-19T00:20:40.045Z,1003.11
2023-08-19T00:21:09.863Z,1003.11
2023-08-19T00:21:33.017Z,1003.11
2023-08-19T00:21:57.981Z,1003.11
2023-08-19T00:22:30.828Z,1003.11
2023-08-19T00:23:01.872Z,1003.22
2023-08-19T00:23:35.593Z,1003.01
2023-08-19T00:24:05.922Z,1003.01
2023-08-19T00:24:33.027Z,1003.01
2023-08-19T00:24:53.850Z,1003.01
2023-08-19T00:25:25.934Z,1003.01
2023-08-19T00:25:58.727Z,1003.22
2023-08-19T00:26:29.888Z,1003.22
2023-08-19T00:27:02.817Z,1003.01
2023-08-19T00:27:33.502Z,1003.22
2023-08-19T00:27:49.948Z,1003.22
2023-08-19T00:28:21.862Z,1003.22
2023-08-19T00:28:39.077Z,1003.11
2023-08-19T00:29:10.729Z,1003.11
2023-08-19T00:29:33.002Z,1003.22
2023-08-19T00:29:57.822Z,1003.22
2023-08-19T00:30:29.856Z,1003.22
2023-08-19T00:31:01.953Z,1003.11
2023-08-19T00:31:34.564Z,1003.11
2023-08-19T00:32:05.823Z,1003.11
2023-08-19T00:32:33.036Z,1003.32
2023-08-19T00:32:53.947Z,1003.32
2023-08-19T00:33:26.709Z,1003.32
2023-08-19T00:33:57.854Z,1003.11
2023-08-19T00:34:31.018Z,1003.11
2023-08-19T00:35:02.031Z,1003.22
2023-08-19T00:35:34.036Z,1003.32
2023-08-19T00:36:05.838Z,1003.32
2023-08-19T00:36:32.994Z,1003.11
2023-08-19T00:36:53.868Z,1003.11
2023-08-19T00:37:25.780Z,1003.11
2023-08-19T00:37:58.748Z,1003.22
2023-08-19T00:38:29.825Z,1003.22
2023-08-19T00:39:02.736Z,1003.32
2023-08-19T00:39:33.027Z,1003.22
2023-08-19T00:40:05.228Z,1003.22
2023-08-19T00:40:24.326Z,1003.22
2023-08-19T00:40:39.842Z,1003.11
2023-08-19T00:41:09.887Z,1003.11
2023-08-19T00:41:33.026Z,1003.32
2023-08-19T00:41:57.819Z,1003.32
2023-08-19T00:42:30.991Z,1003.32
2023-08-19T00:43:01.848Z,1003.22
2023-08-19T00:43:34.040Z,1003.11
2023-08-19T00:44:05.825Z,1003.11
2023-08-19T00:44:33.028Z,1003.11
2023-08-19T00:44:53.922Z,1003.11
2023-08-19T00:45:25.870Z,1003.11
2023-08-19T00:45:58.799Z,1003.32
2023-08-19T00:46:29.857Z,1003.32
2023-08-19T00:47:02.693Z,1003.01
2023-08-19T00:47:33.229Z,1003.22
2023-08-19T00:47:50.004Z,1003.22
2023-08-19T00:48:21.801Z,1003.22
2023-08-19T00:48:39.014Z,1003.52
2023-08-19T00:49:10.832Z,1003.52
2023-08-19T00:49:33.074Z,1003.22
2023-08-19T00:49:57.802Z,1003.22
2023-08-19T00:50:29.815Z,1003.22
2023-08-19T00:51:01.837Z,1003.32
2023-08-19T00:51:33.025Z,1003.42
2023-08-19T00:51:50.457Z,1003.42
2023-08-19T00:52:22.701Z,1003.42
2023-08-19T00:52:40.144Z,1003.42
2023-08-19T00:53:09.848Z,1003.42
2023-08-19T00:53:34.008Z,1003.42
2023-08-19T00:53:57.868Z,1003.42
2023-08-19T00:54:30.888Z,1003.42
2023-08-19T00:55:02.236Z,1003.22
2023-08-19T00:55:34.827Z,1003.32
2023-08-19T00:56:05.909Z,1003.32
2023-08-19T00:56:33.040Z,1003.42
2023-08-19T00:56:53.803Z,1003.42
2023-08-19T00:57:25.816Z,1003.42
2023-08-19T00:57:59.126Z,1003.42
2023-08-19T00:58:29.814Z,1003.42
2023-08-19T00:59:03.010Z,1003.22
2023-08-19T00:59:32.998Z,1003.42
2023-08-19T01:00:05.835Z,1003.42
2023-08-19T01:00:22.718Z,1003.42
2023-08-19T01:00:39.943Z,1003.42
2023-08-19T01:01:09.953Z,1003.42
2023-08-19T01:01:33.078Z,1003.32
2023-08-19T01:01:57.830Z,1003.32
2023-08-19T01:02:31.153Z,1003.32
2023-08-19T01:03:01.865Z,1003.42
2023-08-19T01:03:34.043Z,1003.22
2023-08-19T01:04:06.353Z,1003.22
2023-08-19T01:04:33.105Z,1003.11
2023-08-19T01:04:53.847Z,1003.11
2023-08-19T01:05:25.961Z,1003.11
2023-08-19T01:05:58.783Z,1003.32
2023-08-19T01:06:29.797Z,1003.32
2023-08-19T01:07:02.803Z,1003.32
2023-08-19T01:07:33.266Z,1003.11
2023-08-19T01:08:05.269Z,1003.11
2023-08-19T01:08:22.622Z,1003.11
2023-08-19T01:08:39.918Z,1003.32
2023-08-19T01:09:10.698Z,1003.32
2023-08-19T01:09:33.918Z,1003.32
2023-08-19T01:09:57.891Z,1003.32
2023-08-19T01:10:30.780Z,1003.32
2023-08-19T01:11:01.790Z,1003.11
2023-08-19T01:11:34.387Z,1003.52
2023-08-19T01:12:05.817Z,1003.52
2023-08-19T01:12:32.981Z,1003.32
2023-08-19T01:12:53.804Z,1003.32
2023-08-19T01:13:25.780Z,1003.32
2023-08-19T01:13:58.704Z,1003.32
2023-08-19T01:14:29.786Z,1003.32
2023-08-19T01:15:02.696Z,1003.01
2023-08-19T01:15:33.079Z,1003.22
2023-08-19T01:16:05.292Z,1003.22
2023-08-19T01:16:22.874Z,1003.22
2023-08-19T01:16:39.996Z,1003.01
2023-08-19T01:17:09.781Z,1003.01
2023-08-19T01:17:33.409Z,1003.11
2023-08-19T01:17:57.826Z,1003.11
2023-08-19T01:18:33.572Z,1003.11
2023-08-19T01:19:01.790Z,1003.01
2023-08-19T01:19:33.072Z,1003.32
2023-08-19T01:20:06.734Z,1003.32
2023-08-19T01:20:33.830Z,1003.32
2023-08-19T01:20:53.839Z,1003.32
2023-08-19T01:21:25.830Z,1003.32
2023-08-19T01:21:57.770Z,1003.01
2023-08-19T01:22:29.748Z,1003.01
2023-08-19T01:23:01.781Z,1003.11
2023-08-19T01:23:33.016Z,1003.32
2023-08-19T01:23:49.570Z,1003.32
2023-08-19T01:24:22.613Z,1003.32
2023-08-19T01:24:40.327Z,1003.01
2023-08-19T01:25:09.934Z,1003.01
2023-08-19T01:25:33.009Z,1002.91
2023-08-19T01:25:57.768Z,1002.91
2023-08-19T01:26:30.660Z,1002.91
2023-08-19T01:27:01.767Z,1003.11
2023-08-19T01:27:34.173Z,1003.01
2023-08-19T01:28:05.790Z,1003.01
2023-08-19T01:28:33.038Z,1003.32
2023-08-19T01:28:53.774Z,1003.32
2023-08-19T01:29:25.781Z,1003.32
2023-08-19T01:29:58.889Z,1003.01
2023-08-19T01:30:30.814Z,1003.01
2023-08-19T01:31:03.713Z,1003.11
2023-08-19T01:31:33.060Z,1003.22
2023-08-19T01:31:49.553Z,1003.22
2023-08-19T01:32:21.982Z,1003.22
2023-08-19T01:32:39.218Z,1003.32
2023-08-19T01:33:11.138Z,1003.32
2023-08-19T01:33:33.826Z,1003.22
2023-08-19T01:33:57.740Z,1003.22
2023-08-19T01:34:29.786Z,1003.22
2023-08-19T01:35:01.971Z,1003.11
2023-08-19T01:35:33.025Z,1003.22
2023-08-19T01:35:49.809Z,1003.22
2023-08-19T01:36:22.603Z,1003.22
2023-08-19T01:36:39.863Z,1003.22
2023-08-19T01:37:09.737Z,1003.22
2023-08-19T01:37:33.341Z,1003.32
2023-08-19T01:37:57.795Z,1003.32
2023-08-19T01:38:31.017Z,1003.32
2023-08-19T01:39:09.170Z,1003.32
2023-08-19T01:39:17.723Z,1003.32
2023-08-19T01:39:36.584Z,1003.01
2023-08-19T01:40:05.758Z,1003.01
2023-08-19T01:40:33.051Z,1003.32
2023-08-19T01:40:53.817Z,1003.32
2023-08-19T01:41:32.724Z,1003.32
2023-08-19T01:41:58.714Z,1003.32
2023-08-19T01:42:29.694Z,1003.32
2023-08-19T01:43:02.668Z,1003.22
2023-08-19T01:43:33.000Z,1003.01
2023-08-19T01:43:49.505Z,1003.01
2023-08-19T01:44:21.738Z,1003.01
2023-08-19T01:44:38.967Z,1003.22
2023-08-19T01:45:11.037Z,1003.22
2023-08-19T01:45:33.046Z,1003.11
2023-08-19T01:45:57.780Z,1003.11
2023-08-19T01:46:29.785Z,1003.11
2023-08-19T01:47:01.735Z,1002.91
2023-08-19T01:47:33.375Z,1003.22
2023-08-19T01:47:49.587Z,1003.22
2023-08-19T01:48:22.927Z,1003.22
2023-08-19T01:48:40.165Z,1003.22
2023-08-19T01:49:09.711Z,1003.22
2023-08-19T01:49:33.597Z,1002.91
2023-08-19T01:49:57.765Z,1002.91
2023-08-19T01:50:31.628Z,1002.91
2023-08-19T01:51:01.702Z,1002.91
2023-08-19T01:51:34.140Z,1003.01
2023-08-19T01:52:05.737Z,1003.01
2023-08-19T01:52:33.022Z,1003.22
2023-08-19T01:52:53.792Z,1003.22
2023-08-19T01:53:25.716Z,1003.22
2023-08-19T01:53:58.662Z,1003.32
2023-08-19T01:54:29.738Z,1003.32
2023-08-19T01:55:03.044Z,1003.42
2023-08-19T01:55:33.096Z,1003.22
2023-08-19T01:55:49.494Z,1003.22
2023-08-19T01:56:21.692Z,1003.22
2023-08-19T01:56:38.940Z,1003.11
2023-08-19T01:57:10.705Z,1003.11
2023-08-19T01:57:33.391Z,1003.11
2023-08-19T01:57:57.760Z,1003.11
2023-08-19T01:58:29.694Z,1003.11
2023-08-19T01:59:01.828Z,1003.11
2023-08-19T01:59:33.007Z,1003.42
2023-08-19T01:59:49.826Z,1003.42
2023-08-19T02:00:22.706Z,1003.42
2023-08-19T02:00:40.268Z,1003.22
2023-08-19T02:01:09.768Z,1003.22
2023-08-19T02:01:33.103Z,1003.22
2023-08-19T02:01:57.926Z,1003.22
2023-08-19T02:02:30.710Z,1003.22
2023-08-19T02:03:01.722Z,1003.11
2023-08-19T02:03:33.953Z,1003.22
2023-08-19T02:04:05.703Z,1003.22
2023-08-19T02:04:33.023Z,1003.22
2023-08-19T02:04:53.752Z,1003.22
2023-08-19T02:05:25.771Z,1003.22
2023-08-19T02:05:58.685Z,1003.11
2023-08-19T02:06:29.811Z,1003.11
2023-08-19T02:07:02.684Z,1003.22
2023-08-19T02:07:33.264Z,1003.11
2023-08-19T02:07:49.486Z,1003.11
2023-08-19T02:08:21.699Z,1003.11
2023-08-19T02:08:38.942Z,1003.22
2023-08-19T02:09:10.748Z,1003.22
2023-08-19T02:09:33.061Z,1003.01
2023-08-19T02:09:57.700Z,1003.01
2023-08-19T02:10:29.696Z,1003.01
2023-08-19T02:11:01.734Z,1003.11
2023-08-19T02:11:32.991Z,1003.22
2023-08-19T02:11:49.597Z,1003.22
2023-08-19T02:12:22.629Z,1003.22
2023-08-19T02:12:39.782Z,1003.22
2023-08-19T02:13:09.755Z,1003.22
2023-08-19T02:13:33.543Z,1003.11
2023-08-19T02:13:58.355Z,1003.11
2023-08-19T02:14:30.599Z,1003.11
2023-08-19T02:15:02.201Z,1003.22
2023-08-19T02:15:35.118Z,1003.01
2023-08-19T02:16:05.780Z,1003.01
2023-08-19T02:16:33.835Z,1003.01
2023-08-19T02:16:53.704Z,1003.01
2023-08-19T02:17:25.720Z,1003.01
2023-08-19T02:17:58.608Z,1003.32
2023-08-19T02:18:29.706Z,1003.32
2023-08-19T02:19:02.754Z,1003.32
2023-08-19T02:19:33.543Z,1003.42
2023-08-19T02:20:06.564Z,1003.42
2023-08-19T02:20:33.015Z,1003.32
2023-08-19T02:20:53.696Z,1003.32
2023-08-19T02:21:25.718Z,1003.32
2023-08-19T02:21:57.674Z,1003.32
2023-08-19T02:22:29.720Z,1003.32
2023-08-19T02:23:01.692Z,1003.22
2023-08-19T02:23:33.030Z,1003.22
2023-08-19T02:23:49.512Z,1003.22
2023-08-19T02:24:22.838Z,1003.22
2023-08-19T02:24:40.002Z,1003.32
2023-08-19T02:25:10.930Z,1003.32
2023-08-19T02:25:33.195Z,1003.42
2023-08-19T02:25:57.724Z,1003.42
2023-08-19T02:26:30.572Z,1003.42
2023-08-19T02:27:01.799Z,1003.32
2023-08-19T02:27:34.322Z,1003.11
2023-08-19T02:28:05.691Z,1003.11
2023-08-19T02:28:33.964Z,1003.11
2023-08-19T02:28:53.812Z,1003.11
2023-08-19T02:29:25.686Z,1003.11
2023-08-19T02:29:58.696Z,1003.32
2023-08-19T02:30:29.666Z,1003.32
2023-08-19T02:31:02.705Z,1003.22
2023-08-19T02:31:33.042Z,1003.22
2023-08-19T02:31:49.523Z,1003.22
2023-08-19T02:32:21.674Z,1003.22
2023-08-19T02:32:38.994Z,1003.42
2023-08-19T02:33:10.640Z,1003.42
2023-08-19T02:33:33.105Z,1003.11
2023-08-19T02:33:57.651Z,1003.11
2023-08-19T02:34:30.072Z,1003.11
2023-08-19T02:35:01.953Z,1003.22
2023-08-19T02:35:33.018Z,1003.32
2023-08-19T02:35:49.526Z,1003.32
2023-08-19T02:36:22.696Z,1003.32
2023-08-19T02:36:40.114Z,1003.32
2023-08-19T02:37:09.652Z,1003.32
2023-08-19T02:37:33.675Z,1003.32
2023-08-19T02:37:57.679Z,1003.32
2023-08-19T02:38:30.633Z,1003.32
2023-08-19T02:39:01.650Z,1003.62
2023-08-19T02:39:34.434Z,1003.42
2023-08-19T02:40:05.669Z,1003.42
2023-08-19T02:40:32.962Z,1003.22
2023-08-19T02:40:53.697Z,1003.22
2023-08-19T02:41:25.618Z,1003.22
2023-08-19T02:41:58.587Z,1003.42
2023-08-19T02:42:29.658Z,1003.42
2023-08-19T02:43:02.786Z,1003.42
2023-08-19T02:43:33.019Z,1003.42
2023-08-19T02:43:49.482Z,1003.42
2023-08-19T02:44:21.633Z,1003.42
2023-08-19T02:44:39.912Z,1003.32
2023-08-19T02:45:09.802Z,1003.32
2023-08-19T02:45:32.988Z,1003.22
2023-08-19T02:45:57.677Z,1003.22
2023-08-19T02:46:29.642Z,1003.22
2023-08-19T02:47:02.750Z,1003.32
2023-08-19T02:47:33.456Z,1003.22
2023-08-19T02:47:49.517Z,1003.22
2023-08-19T02:48:21.697Z,1003.22
2023-08-19T02:48:38.945Z,1003.42
2023-08-19T02:49:10.576Z,1003.42
2023-08-19T02:49:33.885Z,1003.32
2023-08-19T02:49:57.740Z,1003.32
2023-08-19T02:50:29.655Z,1003.32
2023-08-19T02:51:01.626Z,1003.32
2023-08-19T02:51:33.004Z,1003.42
2023-08-19T02:51:49.505Z,1003.42
2023-08-19T02:52:22.705Z,1003.42
2023-08-19T02:52:39.838Z,1003.62
2023-08-19T02:53:09.634Z,1003.62
2023-08-19T02:53:33.012Z,1003.42
2023-08-19T02:53:57.607Z,1003.42
2023-08-19T02:54:30.746Z,1003.42
2023-08-19T02:55:02.014Z,1003.72
2023-08-19T02:55:33.915Z,1003.52
2023-08-19T02:56:05.632Z,1003.52
2023-08-19T02:56:32.995Z,1003.52
2023-08-19T02:56:53.729Z,1003.52
2023-08-19T02:57:25.618Z,1003.52
2023-08-19T02:57:58.656Z,1003.42
2023-08-19T02:58:29.629Z,1003.42
2023-08-19T02:59:03.072Z,1003.52
2023-08-19T02:59:32.991Z,1003.42
2023-08-19T02:59:49.796Z,1003.42
2023-08-19T03:00:21.640Z,1003.42
2023-08-19T03:00:38.907Z,1003.32
2023-08-19T03:01:10.606Z,1003.32
2023-08-19T03:01:33.021Z,1003.42
2023-08-19T03:02:11.234Z,1003.42
2023-08-19T03:02:14.602Z,1003.42
2023-08-19T03:02:33.220Z,1003.52
2023-08-19T03:03:02.079Z,1003.52
2023-08-19T03:03:33.044Z,1003.52
2023-08-19T03:03:49.490Z,1003.52
2023-08-19T03:04:23.626Z,1003.52
2023-08-19T03:04:40.877Z,1003.32
2023-08-19T03:05:09.848Z,1003.32
2023-08-19T03:05:33.030Z,1003.42
2023-08-19T03:05:58.400Z,1003.42
2023-08-19T03:06:30.553Z,1003.42
2023-08-19T03:07:01.680Z,1003.22
2023-08-19T03:07:34.244Z,1003.52
2023-08-19T03:08:05.635Z,1003.52
2023-08-19T03:08:33.037Z,1003.32
2023-08-19T03:08:53.625Z,1003.32
2023-08-19T03:09:25.778Z,1003.32
2023-08-19T03:09:58.523Z,1003.42
2023-08-19T03:10:29.642Z,1003.42
2023-08-19T03:11:03.304Z,1003.52
2023-08-19T03:11:33.029Z,1003.42
2023-08-19T03:11:49.483Z,1003.42
2023-08-19T03:12:21.642Z,1003.42
2023-08-19T03:12:38.877Z,1003.52
2023-08-19T03:13:10.583Z,1003.52
2023-08-19T03:13:33.005Z,1003.52
2023-08-19T03:13:57.639Z,1003.52
2023-08-19T03:14:29.589Z,1003.52
2023-08-19T03:15:02.160Z,1003.42
2023-08-19T03:15:33.019Z,1003.42
2023-08-19T03:15:49.505Z,1003.42
2023-08-19T03:16:22.563Z,1003.42
2023-08-19T03:16:39.832Z,1003.42
2023-08-19T03:17:09.923Z,1003.42
2023-08-19T03:17:33.342Z,1003.11
2023-08-19T03:17:57.635Z,1003.11
2023-08-19T03:18:30.620Z,1003.11
2023-08-19T03:19:01.601Z,1003.52
2023-08-19T03:19:34.031Z,1003.22
2023-08-19T03:20:05.628Z,1003.22
2023-08-19T03:20:33.027Z,1003.52
2023-08-19T03:20:53.647Z,1003.52
2023-08-19T03:21:25.664Z,1003.52
2023-08-19T03:21:58.459Z,1003.52
2023-08-19T03:22:29.626Z,1003.52
2023-08-19T03:23:02.520Z,1003.42
2023-08-19T03:23:33.010Z,1003.32
2023-08-19T03:23:49.533Z,1003.32
2023-08-19T03:24:21.620Z,1003.32
2023-08-19T03:24:38.898Z,1003.22
2023-08-19T03:25:10.526Z,1003.22
2023-08-19T03:25:33.037Z,1003.32
2023-08-19T03:25:57.600Z,1003.32
2023-08-19T03:26:29.600Z,1003.32
2023-08-19T03:27:01.618Z,1003.32
2023-08-19T03:27:33.250Z,1003.32
2023-08-19T03:27:49.491Z,1003.32
2023-08-19T03:28:22.498Z,1003.32
2023-08-19T03:28:39.761Z,1003.32
2023-08-19T03:29:09.588Z,1003.32
2023-08-19T03:29:33.038Z,1003.52
2023-08-19T03:29:57.617Z,1003.52
2023-08-19T03:30:30.812Z,1003.52
2023-08-19T03:31:01.613Z,1003.32
2023-08-19T03:31:33.944Z,1003.32
2023-08-19T03:32:05.588Z,1003.32
2023-08-19T03:32:33.108Z,1003.32
2023-08-19T03:32:53.745Z,1003.32
2023-08-19T03:33:25.803Z,1003.32
2023-08-19T03:33:58.507Z,1003.11
2023-08-19T03:34:29.602Z,1003.11
2023-08-19T03:35:02.718Z,1003.22
2023-08-19T03:35:33.024Z,1003.11
2023-08-19T03:35:49.523Z,1003.11
2023-08-19T03:36:27.669Z,1003.11
2023-08-19T03:36:33.014Z,1003.11
2023-08-19T03:36:53.558Z,1003.11
2023-08-19T03:37:25.729Z,1003.11
2023-08-19T03:37:58.078Z,1003.32
2023-08-19T03:38:29.599Z,1003.32
2023-08-19T03:39:01.631Z,1003.11
2023-08-19T03:39:33.028Z,1003.01
2023-08-19T03:39:50.690Z,1003.01
2023-08-19T03:40:22.626Z,1003.01
2023-08-19T03:40:39.928Z,1003.22
2023-08-19T03:41:09.575Z,1003.22
2023-08-19T03:41:33.130Z,1003.32
2023-08-19T03:42:11.270Z,1003.32
2023-08-19T03:42:13.586Z,1003.32
2023-08-19T03:42:33.022Z,1003.22
2023-08-19T03:43:01.602Z,1003.22
2023-08-19T03:43:33.019Z,1003.42
2023-08-19T03:43:49.517Z,1003.42
2023-08-19T03:44:21.569Z,1003.42
2023-08-19T03:44:39.668Z,1003.22
2023-08-19T03:45:09.880Z,1003.22
2023-08-19T03:45:33.499Z,1003.52
2023-08-19T03:45:57.635Z,1003.52
2023-08-19T03:46:29.632Z,1003.52
2023-08-19T03:47:03.611Z,1003.42
2023-08-19T03:47:33.380Z,1003.42
2023-08-19T03:47:49.504Z,1003.42
2023-08-19T03:48:21.561Z,1003.42
2023-08-19T03:48:38.775Z,1003.62
2023-08-19T03:49:10.633Z,1003.62
2023-08-19T03:49:33.011Z,1003.32
2023-08-19T03:49:57.590Z,1003.32
2023-08-19T03:50:29.613Z,1003.32
2023-08-19T03:51:01.578Z,1003.22
2023-08-19T03:51:33.983Z,1003.42
2023-08-19T03:52:05.877Z,1003.42
2023-08-19T03:52:33.020Z,1003.32
2023-08-19T03:52:53.543Z,1003.32
2023-08-19T03:53:26.504Z,1003.32
2023-08-19T03:53:57.551Z,1003.42
2023-08-19T03:54:30.581Z,1003.42
2023-08-19T03:55:02.155Z,1003.52
2023-08-19T03:55:33.880Z,1003.52
2023-08-19T03:56:05.574Z,1003.52
2023-08-19T03:56:33.063Z,1003.42
2023-08-19T03:56:53.516Z,1003.42
2023-08-19T03:57:25.547Z,1003.42
2023-08-19T03:57:58.862Z,1003.42
2023-08-19T03:58:29.611Z,1003.42
2023-08-19T03:59:03.543Z,1003.22
2023-08-19T03:59:33.099Z,1003.22
2023-08-19T03:59:49.556Z,1003.22
2023-08-19T04:00:21.627Z,1003.22
2023-08-19T04:00:38.815Z,1003.22
2023-08-19T04:01:11.473Z,1003.22
2023-08-19T04:01:33.061Z,1003.32
2023-08-19T04:01:57.586Z,1003.32
2023-08-19T04:02:29.570Z,1003.32
2023-08-19T04:03:01.625Z,1003.42
2023-08-19T04:03:33.019Z,1003.32
2023-08-19T04:03:49.546Z,1003.32
2023-08-19T04:04:22.688Z,1003.32
2023-08-19T04:04:39.853Z,1003.62
2023-08-19T04:05:10.085Z,1003.62
2023-08-19T04:05:33.005Z,1003.22
2023-08-19T04:05:57.558Z,1003.22
2023-08-19T04:06:31.484Z,1003.22
2023-08-19T04:07:01.572Z,1003.72
2023-08-19T04:07:34.283Z,1003.72
2023-08-19T04:08:05.586Z,1003.72
2023-08-19T04:08:33.011Z,1003.62
2023-08-19T04:08:53.519Z,1003.62
2023-08-19T04:09:25.538Z,1003.62
2023-08-19T04:09:59.525Z,1003.62
2023-08-19T04:10:29.585Z,1003.62
2023-08-19T04:11:02.490Z,1003.62
2023-08-19T04:11:33.390Z,1003.52
2023-08-19T04:12:06.517Z,1003.52
2023-08-19T04:12:33.034Z,1003.42
2023-08-19T04:12:53.566Z,1003.42
2023-08-19T04:13:25.603Z,1003.42
2023-08-19T04:13:57.554Z,1003.42
2023-08-19T04:14:29.554Z,1003.42
2023-08-19T04:15:02.505Z,1003.32
2023-08-19T04:15:33.042Z,1003.52
2023-08-19T04:15:49.517Z,1003.52
2023-08-19T04:16:22.436Z,1003.52
2023-08-19T04:16:39.704Z,1003.22
2023-08-19T04:17:09.933Z,1003.22
2023-08-19T04:17:33.281Z,1003.32
2023-08-19T04:17:57.624Z,1003.32
2023-08-19T04:18:30.532Z,1003.32
2023-08-19T04:19:01.575Z,1003.32
2023-08-19T04:19:34.220Z,1003.52
2023-08-19T04:20:06.494Z,1003.52
2023-08-19T04:20:34.008Z,1003.32
2023-08-19T04:20:53.585Z,1003.32
2023-08-19T04:21:26.745Z,1003.32
2023-08-19T04:21:58.758Z,1003.32
2023-08-19T04:22:29.561Z,1003.32
2023-08-19T04:23:02.545Z,1003.42
2023-08-19T04:23:33.040Z,1003.32
2023-08-19T04:23:49.576Z,1003.32
2023-08-19T04:24:21.616Z,1003.32
2023-08-19T04:24:38.786Z,1003.42
2023-08-19T04:25:11.253Z,1003.42
2023-08-19T04:25:33.081Z,1003.42
2023-08-19T04:25:57.591Z,1003.42
2023-08-19T04:26:29.614Z,1003.42
2023-08-19T04:27:01.871Z,1003.22
2023-08-19T04:27:33.420Z,1003.42
2023-08-19T04:27:49.580Z,1003.42
2023-08-19T04:28:22.739Z,1003.42
2023-08-19T04:28:39.861Z,1003.42
2023-08-19T04:29:09.589Z,1003.42
2023-08-19T04:29:33.077Z,1003.32
2023-08-19T04:29:57.864Z,1003.32
2023-08-19T04:30:30.606Z,1003.32
2023-08-19T04:31:01.628Z,1003.22
2023-08-19T04:31:33.994Z,1003.32
2023-08-19T04:32:05.561Z,1003.32
2023-08-19T04:32:33.106Z,1003.42
2023-08-19T04:32:53.734Z,1003.42
2023-08-19T04:33:25.626Z,1003.42
2023-08-19T04:33:58.489Z,1003.42
2023-08-19T04:34:29.543Z,1003.42
2023-08-19T04:35:02.608Z,1003.52
2023-08-19T04:35:33.478Z,1003.42
2023-08-19T04:36:06.566Z,1003.42
2023-08-19T04:36:33.590Z,1003.52
2023-08-19T04:36:53.546Z,1003.52
2023-08-19T04:37:25.539Z,1003.52
2023-08-19T04:37:57.630Z,1003.72
2023-08-19T04:38:29.575Z,1003.72
2023-08-19T04:39:01.642Z,1003.42
2023-08-19T04:39:33.821Z,1003.52
2023-08-19T04:40:05.639Z,1003.52
2023-08-19T04:40:33.070Z,1003.62
2023-08-19T04:40:53.629Z,1003.62
2023-08-19T04:41:26.457Z,1003.62
2023-08-19T04:42:00.318Z,1003.62
2023-08-19T04:42:30.622Z,1003.62
2023-08-19T04:43:01.538Z,1003.42
2023-08-19T04:43:33.912Z,1003.52
2023-08-19T04:44:05.578Z,1003.52
2023-08-19T04:44:33.613Z,1003.52
2023-08-19T04:44:53.500Z,1003.52
2023-08-19T04:45:25.611Z,1003.52
2023-08-19T04:45:58.882Z,1003.52
2023-08-19T04:46:30.350Z,1003.52
2023-08-19T04:47:02.570Z,1003.62
2023-08-19T04:47:33.315Z,1003.62
2023-08-19T04:47:49.612Z,1003.62
2023-08-19T04:48:21.947Z,1003.62
2023-08-19T04:48:39.218Z,1003.42
2023-08-19T04:49:10.494Z,1003.42
2023-08-19T04:49:33.226Z,1003.42
2023-08-19T04:49:57.616Z,1003.42
2023-08-19T04:50:29.515Z,1003.42
2023-08-19T04:51:01.606Z,1003.62
2023-08-19T04:51:33.080Z,1003.42
2023-08-19T04:51:49.557Z,1003.42
2023-08-19T04:52:22.936Z,1003.42
2023-08-19T04:52:40.171Z,1003.42
2023-08-19T04:53:09.577Z,1003.42
2023-08-19T04:53:33.169Z,1003.62
2023-08-19T04:53:57.926Z,1003.62
2023-08-19T04:54:30.785Z,1003.62
2023-08-19T04:55:02.001Z,1003.62
2023-08-19T04:55:34.024Z,1003.52
2023-08-19T04:56:05.622Z,1003.52
2023-08-19T04:56:33.053Z,1003.52
2023-08-19T04:56:53.489Z,1003.52
2023-08-19T04:57:25.577Z,1003.52
2023-08-19T04:57:58.520Z,1003.72
2023-08-19T04:58:29.541Z,1003.72
2023-08-19T04:59:02.594Z,1003.52
2023-08-19T04:59:33.040Z,1003.62
2023-08-19T04:59:49.707Z,1003.62
2023-08-19T05:00:21.724Z,1003.62
2023-08-19T05:00:38.972Z,1003.62
2023-08-19T05:01:10.696Z,1003.62
2023-08-19T05:01:33.128Z,1003.72
2023-08-19T05:01:57.510Z,1003.72
2023-08-19T05:02:29.564Z,1003.72
2023-08-19T05:03:01.592Z,1003.72
2023-08-19T05:03:33.083Z,1003.83
2023-08-19T05:03:49.594Z,1003.83
2023-08-19T05:04:22.762Z,1003.83
2023-08-19T05:04:39.845Z,1003.72
2023-08-19T05:05:10.111Z,1003.72
2023-08-19T05:05:33.034Z,1003.62
2023-08-19T05:05:57.584Z,1003.62
2023-08-19T05:06:30.385Z,1003.62
2023-08-19T05:07:01.571Z,1003.62
2023-08-19T05:07:34.355Z,1003.62
2023-08-19T05:08:05.510Z,1003.62
2023-08-19T05:08:33.078Z,1003.62
2023-08-19T05:08:53.550Z,1003.62
2023-08-19T05:09:25.727Z,1003.62
2023-08-19T05:09:58.559Z,1003.62
2023-08-19T05:10:29.468Z,1003.62
2023-08-19T05:11:02.512Z,1003.72
2023-08-19T05:11:33.046Z,1003.42
2023-08-19T05:11:49.582Z,1003.42
2023-08-19T05:12:21.501Z,1003.42
2023-08-19T05:12:38.727Z,1003.52
2023-08-19T05:13:10.981Z,1003.52
2023-08-19T05:13:33.096Z,1003.62
2023-08-19T05:13:57.553Z,1003.62
2023-08-19T05:14:29.551Z,1003.62
2023-08-19T05:15:02.090Z,1003.52
2023-08-19T05:15:33.144Z,1003.52
2023-08-19T05:15:49.713Z,1003.52
2023-08-19T05:16:22.438Z,1003.52
2023-08-19T05:16:40.456Z,1003.62
2023-08-19T05:17:09.805Z,1003.62
2023-08-19T05:17:33.379Z,1003.52
2023-08-19T05:17:57.997Z,1003.52
2023-08-19T05:18:30.566Z,1003.52
2023-08-19T05:19:02.555Z,1003.72
2023-08-19T05:19:34.128Z,1003.52
2023-08-19T05:20:05.479Z,1003.52
2023-08-19T05:20:33.119Z,1003.62
2023-08-19T05:20:53.489Z,1003.62
2023-08-19T05:21:25.553Z,1003.62
2023-08-19T05:21:58.798Z,1003.62
2023-08-19T05:22:29.518Z,1003.62
2023-08-19T05:23:02.470Z,1003.72
2023-08-19T05:23:33.029Z,1003.72
2023-08-19T05:23:49.534Z,1003.72
2023-08-19T05:24:21.516Z,1003.72
2023-08-19T05:24:38.738Z,1003.62
2023-08-19T05:25:11.444Z,1003.62
2023-08-19T05:25:33.054Z,1003.83
2023-08-19T05:25:57.830Z,1003.83
2023-08-19T05:26:29.461Z,1003.83
2023-08-19T05:27:01.527Z,1003.62
2023-08-19T05:27:33.180Z,1003.83
2023-08-19T05:27:49.549Z,1003.83
2023-08-19T05:28:24.196Z,1003.83
2023-08-19T05:28:41.121Z,1004.03
2023-08-19T05:29:10.155Z,1004.03
2023-08-19T05:29:33.017Z,1004.03
2023-08-19T05:29:57.453Z,1004.03
2023-08-19T05:30:30.622Z,1004.03
2023-08-19T05:31:01.551Z,1003.83
2023-08-19T05:31:34.263Z,1003.72
2023-08-19T05:32:05.525Z,1003.72
2023-08-19T05:32:33.076Z,1003.93
2023-08-19T05:32:53.615Z,1003.93
2023-08-19T05:33:25.488Z,1003.93
2023-08-19T05:33:58.935Z,1003.83
2023-08-19T05:34:29.527Z,1003.83
2023-08-19T05:35:02.498Z,1003.72
2023-08-19T05:35:33.100Z,1003.62
2023-08-19T05:35:49.593Z,1003.62
2023-08-19T05:36:21.740Z,1003.62